createdAt,value
2019-03-15T00:00:27.837Z,2.83
2019-03-15T00:02:56.654Z,2.47
2019-03-15T00:05:44.787Z,2.67
2019-03-15T00:08:32.745Z,2.60
2019-03-15T00:11:13.982Z,3.03
2019-03-15T00:13:42.743Z,2.80
2019-03-15T00:16:30.812Z,2.17
2019-03-15T00:18:59.474Z,2.80
2019-03-15T00:21:28.313Z,2.20
2019-03-15T00:23:57.205Z,2.27
2019-03-15T00:26:25.976Z,2.73
2019-03-15T00:29:14.148Z,2.90
2019-03-15T00:32:02.099Z,2.50
2019-03-15T00:34:50.108Z,2.70
2019-03-15T00:37:38.174Z,2.90
2019-03-15T00:40:26.208Z,2.67
2019-03-15T00:43:14.312Z,2.80
2019-03-15T00:45:42.996Z,2.63
2019-03-15T00:48:30.942Z,2.80
2019-03-15T00:51:00.027Z,2.63
2019-03-15T00:53:48.086Z,2.37
2019-03-15T00:56:17.003Z,2.73
2019-03-15T00:59:05.347Z,2.60
2019-03-15T01:01:53.456Z,2.70
2019-03-15T01:04:22.364Z,2.17
2019-03-15T01:07:10.297Z,3.50
2019-03-15T01:09:58.229Z,2.60
2019-03-15T01:12:38.847Z,2.80
2019-03-15T01:15:19.588Z,2.30
2019-03-15T01:18:00.460Z,3.23
2019-03-15T01:20:41.374Z,2.30
2019-03-15T01:23:22.492Z,2.73
2019-03-15T01:25:51.388Z,3.17
2019-03-15T01:28:19.979Z,2.03
2019-03-15T01:30:48.829Z,2.80
2019-03-15T01:33:17.437Z,2.50
2019-03-15T01:36:05.371Z,2.63
2019-03-15T01:38:34.459Z,2.27
2019-03-15T01:41:22.466Z,2.13
2019-03-15T01:44:10.404Z,2.00
2019-03-15T01:46:59.308Z,2.50
2019-03-15T01:49:48.036Z,2.80
2019-03-15T01:52:35.992Z,2.47
2019-03-15T01:55:23.924Z,2.33
2019-03-15T01:58:11.940Z,1.97
2019-03-15T02:00:59.933Z,1.80
2019-03-15T02:03:49.519Z,2.83
2019-03-15T02:06:37.424Z,2.20
2019-03-15T02:09:09.078Z,1.97
2019-03-15T02:11:48.522Z,2.50
2019-03-15T02:14:29.218Z,2.60
2019-03-15T02:17:29.472Z,2.27
2019-03-15T02:20:10.911Z,2.30
2019-03-15T02:22:52.255Z,2.93
2019-03-15T02:25:32.967Z,2.10
2019-03-15T02:28:14.211Z,1.83
2019-03-15T02:30:55.412Z,2.53
2019-03-15T02:33:36.035Z,2.27
2019-03-15T02:36:04.636Z,2.43
2019-03-15T02:38:33.465Z,2.07
2019-03-15T02:41:21.420Z,2.00
2019-03-15T02:43:50.012Z,2.77
2019-03-15T02:46:37.964Z,2.53
2019-03-15T02:49:25.872Z,2.53
2019-03-15T02:51:54.553Z,2.90
2019-03-15T02:54:42.455Z,2.13
2019-03-15T02:57:11.034Z,2.10
2019-03-15T02:59:39.603Z,1.70
2019-03-15T03:02:08.203Z,2.40
2019-03-15T03:04:56.129Z,2.23
2019-03-15T03:07:44.133Z,2.40
2019-03-15T03:10:32.054Z,2.07
2019-03-15T03:13:00.659Z,2.60
2019-03-15T03:15:48.629Z,2.60
2019-03-15T03:18:36.570Z,2.30
2019-03-15T03:21:24.729Z,2.00
2019-03-15T03:23:53.404Z,2.13
2019-03-15T03:26:41.320Z,1.90
2019-03-15T03:29:29.467Z,2.20
2019-03-15T03:31:58.287Z,1.83
2019-03-15T03:34:26.869Z,2.07
2019-03-15T03:36:57.958Z,2.17
2019-03-15T03:39:46.160Z,1.80
2019-03-15T03:42:14.996Z,2.30
2019-03-15T03:45:02.904Z,2.57
2019-03-15T03:47:50.810Z,2.13
2019-03-15T03:50:38.704Z,2.10
2019-03-15T03:53:26.609Z,2.03
2019-03-15T03:56:14.545Z,1.60
2019-03-15T03:59:02.803Z,1.90
2019-03-15T04:01:50.807Z,2.87
2019-03-15T04:04:19.386Z,2.37
2019-03-15T04:07:07.328Z,2.20
2019-03-15T04:09:35.877Z,2.10
2019-03-15T04:12:16.576Z,2.30
2019-03-15T04:14:58.061Z,2.30
2019-03-15T04:17:26.650Z,1.50
2019-03-15T04:20:14.551Z,1.97
2019-03-15T04:23:02.452Z,2.20
2019-03-15T04:25:50.348Z,1.97
2019-03-15T04:28:19.011Z,1.73
2019-03-15T04:30:47.592Z,2.47
2019-03-15T04:33:35.763Z,2.30
2019-03-15T04:36:04.354Z,1.47
2019-03-15T04:38:32.936Z,2.30
2019-03-15T04:41:01.519Z,2.20
2019-03-15T04:43:49.675Z,1.70
2019-03-15T04:46:38.103Z,1.50
2019-03-15T04:49:26.003Z,2.13
2019-03-15T04:52:14.187Z,2.13
2019-03-15T04:55:02.372Z,2.17
2019-03-15T04:57:50.275Z,2.40
2019-03-15T05:00:18.848Z,1.67
2019-03-15T05:02:47.527Z,1.57
2019-03-15T05:05:16.645Z,1.90
2019-03-15T05:07:45.479Z,2.03
2019-03-15T05:10:14.105Z,2.07
2019-03-15T05:12:54.888Z,1.60
2019-03-15T05:15:35.728Z,1.90
2019-03-15T05:18:04.422Z,1.87
2019-03-15T05:20:33.008Z,2.03
2019-03-15T05:23:02.199Z,2.17
2019-03-15T05:25:50.122Z,1.67
2019-03-15T05:28:38.297Z,2.07
2019-03-15T05:31:26.200Z,1.50
2019-03-15T05:34:14.166Z,1.73
2019-03-15T05:37:02.081Z,2.40
2019-03-15T05:39:30.799Z,2.13
2019-03-15T05:41:59.359Z,2.53
2019-03-15T05:44:47.315Z,1.80
2019-03-15T05:47:35.402Z,1.73
2019-03-15T05:50:23.317Z,1.83
2019-03-15T05:53:11.236Z,1.70
2019-03-15T05:55:59.151Z,1.80
2019-03-15T05:58:47.572Z,2.13
2019-03-15T06:01:35.498Z,1.63
2019-03-15T06:04:23.405Z,2.07
2019-03-15T06:07:11.663Z,1.47
2019-03-15T06:09:59.574Z,2.10
2019-03-15T06:12:40.066Z,2.00
2019-03-15T06:15:08.669Z,2.10
2019-03-15T06:17:56.595Z,1.77
2019-03-15T06:20:44.516Z,1.90
2019-03-15T06:23:32.523Z,1.83
2019-03-15T06:26:01.091Z,1.87
2019-03-15T06:28:49.041Z,1.73
2019-03-15T06:31:36.954Z,1.70
2019-03-15T06:34:24.952Z,1.97
2019-03-15T06:37:12.875Z,2.20
2019-03-15T06:40:00.992Z,2.20
2019-03-15T06:42:48.924Z,1.90
2019-03-15T06:45:17.761Z,2.03
2019-03-15T06:48:05.682Z,1.73
2019-03-15T06:50:34.369Z,1.80
2019-03-15T06:53:22.287Z,1.83
2019-03-15T06:56:11.007Z,2.00
2019-03-15T06:58:40.223Z,2.20
2019-03-15T07:01:29.645Z,1.80
2019-03-15T07:03:58.520Z,1.70
2019-03-15T07:06:46.479Z,1.70
2019-03-15T07:09:34.625Z,1.77
2019-03-15T07:12:15.543Z,2.20
2019-03-15T07:14:44.143Z,1.87
2019-03-15T07:20:00.928Z,1.90
2019-03-15T07:22:29.527Z,1.90
2019-03-15T07:25:05.376Z,1.93
2019-03-15T07:27:33.991Z,2.20
2019-03-15T07:30:02.696Z,1.77
2019-03-15T07:32:50.727Z,1.60
2019-03-15T07:35:19.472Z,1.60
2019-03-15T07:37:48.446Z,1.53
2019-03-15T07:40:36.564Z,1.90
2019-03-15T07:43:05.581Z,1.93
2019-03-15T07:45:34.235Z,1.80
2019-03-15T07:48:02.919Z,1.87
2019-03-15T07:50:31.586Z,1.93
2019-03-15T07:53:00.240Z,1.80
2019-03-15T07:55:29.172Z,1.90
2019-03-15T07:57:58.269Z,2.10
2019-03-15T08:00:27.064Z,2.07
2019-03-15T08:03:15.007Z,2.00
2019-03-15T08:05:43.578Z,2.10
2019-03-15T08:08:32.091Z,1.97
2019-03-15T08:11:12.607Z,2.63
2019-03-15T08:13:41.308Z,3.07
2019-03-15T08:16:10.172Z,2.50
2019-03-15T08:18:39.019Z,2.63
2019-03-15T08:21:27.206Z,2.90
2019-03-15T08:23:55.782Z,3.17
2019-03-15T08:26:43.736Z,2.23
2019-03-15T08:29:12.301Z,2.70
2019-03-15T08:32:00.235Z,2.27
2019-03-15T08:34:28.813Z,2.60
2019-03-15T08:36:57.383Z,2.67
2019-03-15T08:39:25.963Z,2.63
2019-03-15T08:41:54.556Z,3.13
2019-03-15T08:44:42.522Z,2.50
2019-03-15T08:47:30.511Z,2.50
2019-03-15T08:49:59.093Z,2.50
2019-03-15T08:52:47.011Z,2.70
2019-03-15T08:55:15.874Z,2.43
2019-03-15T08:57:44.460Z,2.87
2019-03-15T09:00:13.066Z,2.30
2019-03-15T09:03:01.096Z,3.40
2019-03-15T09:05:49.289Z,2.60
2019-03-15T09:08:17.874Z,2.50
2019-03-15T09:10:46.678Z,2.40
2019-03-15T09:13:15.319Z,3.63
2019-03-15T09:16:03.205Z,2.23
2019-03-15T09:18:32.117Z,2.77
2019-03-15T09:21:20.032Z,2.83
2019-03-15T09:24:07.947Z,2.73
2019-03-15T09:26:55.867Z,2.80
2019-03-15T09:29:43.805Z,2.73
2019-03-15T09:32:12.378Z,3.10
2019-03-15T09:35:00.499Z,3.37
2019-03-15T09:37:48.488Z,2.80
2019-03-15T09:40:36.660Z,3.30
2019-03-15T09:43:24.898Z,3.10
2019-03-15T09:46:12.845Z,2.90
2019-03-15T09:48:43.844Z,2.93
2019-03-15T09:51:31.091Z,2.60
2019-03-15T09:54:19.252Z,3.43
2019-03-15T09:57:07.246Z,3.00
2019-03-15T09:59:55.152Z,3.40
2019-03-15T10:02:43.264Z,3.80
2019-03-15T10:05:31.203Z,2.43
2019-03-15T10:08:19.129Z,3.40
2019-03-15T10:11:07.635Z,3.77
2019-03-15T10:13:36.835Z,3.57
2019-03-15T10:16:24.746Z,3.40
2019-03-15T10:19:12.692Z,3.40
2019-03-15T10:21:41.283Z,4.13
2019-03-15T10:24:29.442Z,3.40
2019-03-15T10:26:58.284Z,3.03
2019-03-15T10:29:46.536Z,3.37
2019-03-15T10:32:34.451Z,3.43
2019-03-15T10:35:03.412Z,3.37
2019-03-15T10:37:51.291Z,3.37
2019-03-15T10:40:19.911Z,2.70
2019-03-15T10:43:07.815Z,3.37
2019-03-15T10:45:55.744Z,3.00
2019-03-15T10:48:43.891Z,3.53
2019-03-15T10:51:12.766Z,3.37
2019-03-15T10:54:00.679Z,3.20
2019-03-15T10:56:48.627Z,2.80
2019-03-15T10:59:36.736Z,3.10
2019-03-15T11:02:24.936Z,2.27
2019-03-15T11:05:12.848Z,2.90
2019-03-15T11:08:00.767Z,2.70
2019-03-15T11:10:48.691Z,3.10
2019-03-15T11:13:17.347Z,2.90
2019-03-15T11:15:46.197Z,2.83
2019-03-15T11:18:34.164Z,2.50
2019-03-15T11:21:02.731Z,2.80
2019-03-15T11:26:19.095Z,2.20
2019-03-15T11:28:47.683Z,2.20
2019-03-15T11:31:35.603Z,3.00
2019-03-15T11:34:23.763Z,2.40
2019-03-15T11:36:58.341Z,2.27
2019-03-15T11:39:23.126Z,2.67
2019-03-15T11:41:54.552Z,2.43
2019-03-15T11:44:23.199Z,2.43
2019-03-15T11:47:12.861Z,2.57
2019-03-15T11:50:00.779Z,2.10
2019-03-15T11:52:29.408Z,2.00
2019-03-15T11:55:17.323Z,2.40
2019-03-15T11:57:45.897Z,2.33
2019-03-15T12:00:34.112Z,1.90
2019-03-15T12:03:02.670Z,2.37
2019-03-15T12:05:31.311Z,2.30
2019-03-15T12:08:02.951Z,2.37
2019-03-15T12:10:50.977Z,2.27
2019-03-15T12:13:31.730Z,2.73
2019-03-15T12:16:12.952Z,3.47
2019-03-15T12:18:53.938Z,2.97
2019-03-15T12:21:34.480Z,2.87
2019-03-15T12:24:15.588Z,2.30
2019-03-15T12:26:56.763Z,2.50
2019-03-15T12:29:25.711Z,2.30
2019-03-15T12:32:14.103Z,2.50
2019-03-15T12:35:02.056Z,2.50
2019-03-15T12:37:49.963Z,2.00
2019-03-15T12:40:38.510Z,1.97
2019-03-15T12:43:26.414Z,2.53
2019-03-15T12:46:14.703Z,1.70
2019-03-15T12:48:43.642Z,2.10
2019-03-15T12:51:12.210Z,1.50
2019-03-15T12:53:40.791Z,1.73
2019-03-15T12:56:11.143Z,1.80
2019-03-15T12:58:59.323Z,1.47
2019-03-15T13:01:47.270Z,1.70
2019-03-15T13:04:16.292Z,1.50
2019-03-15T13:07:04.219Z,2.33
2019-03-15T13:09:32.838Z,1.60
2019-03-15T13:12:14.010Z,1.90
2019-03-15T13:14:54.552Z,1.60
2019-03-15T13:17:35.687Z,1.57
2019-03-15T13:20:16.444Z,1.50
2019-03-15T13:22:56.795Z,1.60
2019-03-15T13:25:37.833Z,1.30
2019-03-15T13:28:19.369Z,1.27
2019-03-15T13:31:00.467Z,1.67
2019-03-15T13:33:29.068Z,1.30
2019-03-15T13:36:17.125Z,1.23
2019-03-15T13:38:45.975Z,1.63
2019-03-15T13:41:34.221Z,1.80
2019-03-15T13:44:03.067Z,1.20
2019-03-15T13:46:51.034Z,1.50
2019-03-15T13:49:38.967Z,1.43
2019-03-15T13:52:07.586Z,1.60
2019-03-15T13:54:36.436Z,1.60
2019-03-15T13:57:24.383Z,1.43
2019-03-15T14:00:12.427Z,1.00
2019-03-15T14:02:41.248Z,1.20
2019-03-15T14:05:10.084Z,1.50
2019-03-15T14:07:38.663Z,1.80
2019-03-15T14:10:26.585Z,1.23
2019-03-15T14:13:06.906Z,1.37
2019-03-15T14:15:35.831Z,1.13
2019-03-15T14:18:04.691Z,1.47
2019-03-15T14:20:33.503Z,1.50
2019-03-15T14:23:02.088Z,1.33
2019-03-15T14:25:49.786Z,1.23
2019-03-15T14:28:37.953Z,1.70
2019-03-15T14:31:26.073Z,1.47
2019-03-15T14:33:54.707Z,1.27
2019-03-15T14:36:23.330Z,1.30
2019-03-15T14:39:11.751Z,1.60
2019-03-15T14:41:59.935Z,1.37
2019-03-15T14:44:28.695Z,1.60
2019-03-15T14:46:57.368Z,1.10
2019-03-15T14:49:26.209Z,1.50
2019-03-15T14:51:54.804Z,1.10
2019-03-15T14:54:42.724Z,1.40
2019-03-15T14:57:30.671Z,1.10
2019-03-15T15:00:18.583Z,1.30
2019-03-15T15:03:06.528Z,1.20
2019-03-15T15:05:54.687Z,1.20
2019-03-15T15:08:23.345Z,1.20
2019-03-15T15:11:11.356Z,1.50
2019-03-15T15:13:51.872Z,1.33
2019-03-15T15:16:20.535Z,1.60
2019-03-15T15:18:49.187Z,1.50
2019-03-15T15:21:37.107Z,1.30
2019-03-15T15:24:05.708Z,1.37
2019-03-15T15:26:53.945Z,1.07
2019-03-15T15:29:41.964Z,1.17
2019-03-15T15:32:29.871Z,1.23
2019-03-15T15:34:58.515Z,1.27
2019-03-15T15:37:27.165Z,1.00
2019-03-15T15:39:55.765Z,1.30
2019-03-15T15:42:24.491Z,1.07
2019-03-15T15:44:53.072Z,1.33
2019-03-15T15:47:21.655Z,1.40
2019-03-15T15:49:50.238Z,1.13
2019-03-15T15:52:19.136Z,1.47
2019-03-15T15:55:07.083Z,1.77
2019-03-15T15:57:55.015Z,1.20
2019-03-15T16:00:42.943Z,1.23
2019-03-15T16:03:31.005Z,1.30
2019-03-15T16:06:18.918Z,1.70
2019-03-15T16:09:07.404Z,1.90
2019-03-15T16:11:55.448Z,1.23
2019-03-15T16:14:43.663Z,1.50
2019-03-15T16:17:31.576Z,1.53
2019-03-15T16:20:00.430Z,2.13
2019-03-15T16:22:48.423Z,1.70
2019-03-15T16:25:36.455Z,2.12
2019-03-15T16:28:05.149Z,3.80
2019-03-15T16:30:33.742Z,2.95
2019-03-15T16:33:21.668Z,2.72
2019-03-15T16:36:09.587Z,2.47
2019-03-15T16:38:57.539Z,2.40
2019-03-15T16:41:45.474Z,2.20
2019-03-15T16:44:33.630Z,2.37
2019-03-15T16:47:21.791Z,2.20
2019-03-15T16:49:50.708Z,2.50
2019-03-15T16:52:38.632Z,2.70
2019-03-15T16:55:07.949Z,2.43
2019-03-15T16:57:36.963Z,1.87
2019-03-15T17:00:05.881Z,2.10
2019-03-15T17:02:53.804Z,1.80
2019-03-15T17:05:22.621Z,1.77
2019-03-15T17:07:51.251Z,1.70
2019-03-15T17:10:20.080Z,2.37
2019-03-15T17:12:48.915Z,2.20
2019-03-15T17:15:17.518Z,3.47
2019-03-15T17:17:46.102Z,2.37
2019-03-15T17:20:14.789Z,3.00
2019-03-15T17:23:02.701Z,2.63
2019-03-15T17:25:31.539Z,3.20
2019-03-15T17:28:19.427Z,2.10
2019-03-15T17:30:48.106Z,2.90
2019-03-15T17:33:16.961Z,2.70
2019-03-15T17:35:45.572Z,2.90
2019-03-15T17:38:14.139Z,3.60
2019-03-15T17:40:42.745Z,2.77
2019-03-15T17:43:11.595Z,3.20
2019-03-15T17:45:40.159Z,2.47
2019-03-15T17:48:09.013Z,3.13
2019-03-15T17:50:37.598Z,2.97
2019-03-15T17:53:25.535Z,3.43
2019-03-15T17:55:54.130Z,2.80
2019-03-15T17:58:25.903Z,3.50
2019-03-15T18:00:53.488Z,4.30
2019-03-15T18:03:22.127Z,3.70
2019-03-15T18:05:50.728Z,4.23
2019-03-15T18:08:38.348Z,4.57
2019-03-15T18:11:07.183Z,4.60
2019-03-15T18:13:36.355Z,5.00
2019-03-15T18:16:04.944Z,4.20
2019-03-15T18:18:53.133Z,4.93
2019-03-15T18:21:21.723Z,4.87
2019-03-15T18:23:50.418Z,4.63
2019-03-15T18:26:19.063Z,5.43
2019-03-15T18:28:47.676Z,4.33
2019-03-15T18:31:17.459Z,5.00
2019-03-15T18:33:46.110Z,5.47
2019-03-15T18:36:14.709Z,5.03
2019-03-15T18:38:43.330Z,5.20
2019-03-15T18:41:11.945Z,4.67
2019-03-15T18:43:40.656Z,5.57
2019-03-15T18:46:09.546Z,11.55
2019-03-15T18:48:57.708Z,7.10
2019-03-15T18:51:45.602Z,4.17
2019-03-15T18:54:17.639Z,3.73
2019-03-15T18:56:44.836Z,4.10
2019-03-15T18:59:13.620Z,2.63
2019-03-15T19:01:42.341Z,3.73
2019-03-15T19:04:30.467Z,3.47
2019-03-15T19:06:59.103Z,3.30
2019-03-15T19:09:47.033Z,3.07
2019-03-15T19:12:15.779Z,3.20
2019-03-15T19:15:04.054Z,2.73
2019-03-15T19:17:32.749Z,3.50
2019-03-15T19:20:01.341Z,3.73
2019-03-15T19:22:30.259Z,3.30
2019-03-15T19:24:58.908Z,3.50
2019-03-15T19:27:46.827Z,2.43
2019-03-15T19:30:34.761Z,3.50
2019-03-15T19:33:22.691Z,3.07
2019-03-15T19:35:51.295Z,2.73
2019-03-15T19:38:19.875Z,2.97
2019-03-15T19:40:48.814Z,2.93
2019-03-15T19:43:17.757Z,3.27
2019-03-15T19:46:05.732Z,3.23
2019-03-15T19:48:34.341Z,3.07
2019-03-15T19:51:02.935Z,3.63
2019-03-15T19:53:31.866Z,3.73
2019-03-15T19:56:00.622Z,3.03
2019-03-15T19:58:29.582Z,3.37
2019-03-15T20:01:17.519Z,3.53
2019-03-15T20:04:05.828Z,6.63
2019-03-15T20:06:34.699Z,3.87
2019-03-15T20:09:04.185Z,4.10
2019-03-15T20:11:52.700Z,3.33
2019-03-15T20:14:21.409Z,3.60
2019-03-15T20:16:51.140Z,3.90
2019-03-15T20:19:39.275Z,3.90
2019-03-15T20:22:08.220Z,3.20
2019-03-15T20:24:37.060Z,3.90
2019-03-15T20:27:05.676Z,3.07
2019-03-15T20:29:34.284Z,3.00
2019-03-15T20:32:02.860Z,3.83
2019-03-15T20:34:31.572Z,3.30
2019-03-15T20:37:19.483Z,4.07
2019-03-15T20:39:48.143Z,3.77
2019-03-15T20:42:16.992Z,4.90
2019-03-15T20:45:05.414Z,4.27
2019-03-15T20:47:53.340Z,3.23
2019-03-15T20:50:46.532Z,3.20
2019-03-15T20:53:31.198Z,3.37
2019-03-15T20:56:19.215Z,4.00
2019-03-15T20:59:07.194Z,3.80
2019-03-15T21:01:55.112Z,3.63
2019-03-15T21:04:23.767Z,3.40
2019-03-15T21:07:11.879Z,3.93
2019-03-15T21:09:59.816Z,3.83
2019-03-15T21:12:40.861Z,3.53
2019-03-15T21:15:10.070Z,2.90
2019-03-15T21:17:58.393Z,3.43
2019-03-15T21:20:46.358Z,3.67
2019-03-15T21:23:15.081Z,3.33
2019-03-15T21:25:44.222Z,3.80
2019-03-15T21:28:32.197Z,3.97
2019-03-15T21:31:00.784Z,3.53
2019-03-15T21:33:29.469Z,3.80
2019-03-15T21:36:17.426Z,2.93
2019-03-15T21:38:48.421Z,3.53
2019-03-15T21:41:35.844Z,3.97
2019-03-15T21:44:23.792Z,3.57
2019-03-15T21:46:52.416Z,4.03
2019-03-15T21:49:21.059Z,2.77
2019-03-15T21:52:08.974Z,3.60
2019-03-15T21:54:37.558Z,3.37
2019-03-15T21:57:06.431Z,2.97
2019-03-15T21:59:35.049Z,2.57
2019-03-15T22:02:03.682Z,3.40
2019-03-15T22:04:32.467Z,2.70
2019-03-15T22:07:01.408Z,2.80
2019-03-15T22:09:49.468Z,3.03
2019-03-15T22:12:37.465Z,3.23
2019-03-15T22:15:07.417Z,3.40
2019-03-15T22:17:36.476Z,3.00
2019-03-15T22:20:24.465Z,3.53
2019-03-15T22:22:53.075Z,3.33
2019-03-15T22:25:41.548Z,3.10
2019-03-15T22:28:10.141Z,3.47
2019-03-15T22:30:38.827Z,3.43
2019-03-15T22:33:07.844Z,3.00
2019-03-15T22:35:36.439Z,2.60
2019-03-15T22:38:05.420Z,2.80
2019-03-15T22:40:34.346Z,3.13
2019-03-15T22:43:22.519Z,2.67
2019-03-15T22:46:10.475Z,2.97
2019-03-15T22:48:58.515Z,2.40
2019-03-15T22:51:30.423Z,2.97
2019-03-15T22:53:59.284Z,2.17
2019-03-15T22:56:47.281Z,2.47
2019-03-15T22:59:35.517Z,2.80
2019-03-15T23:02:23.553Z,3.27
2019-03-15T23:05:11.509Z,2.80
2019-03-15T23:07:40.305Z,2.77
2019-03-15T23:10:28.507Z,2.43
2019-03-15T23:12:57.407Z,2.70
2019-03-15T23:15:45.367Z,2.60
2019-03-15T23:18:33.637Z,3.30
2019-03-15T23:21:21.840Z,2.90
2019-03-15T23:24:09.839Z,2.40
2019-03-15T23:26:38.741Z,3.07
2019-03-15T23:29:26.764Z,2.90
2019-03-15T23:31:55.615Z,2.70
2019-03-15T23:34:24.305Z,2.80
2019-03-15T23:36:52.915Z,2.13
2019-03-15T23:39:21.822Z,1.90
2019-03-15T23:41:50.700Z,2.60
2019-03-15T23:44:19.908Z,2.23
2019-03-15T23:47:07.845Z,2.43
2019-03-15T23:49:55.876Z,2.40
2019-03-15T23:52:24.571Z,2.90
2019-03-15T23:54:53.806Z,2.50
2019-03-15T23:57:22.420Z,2.67
2019-03-15T23:59:51.408Z,2.47
